Time;durP1;ratioP1;P1;durP2;ratioP2;P2;SDS_P1;SDS_P2;PMS_P1;PMS_P2;Temp;Humidity;BMP_temperature;BMP_pressure;BME280_temperature;BME280_humidity;BME280_pressure;Samples;Min_cycle;Max_cycle;Signal;HPM_P1;HPM_P2
2021/12/05 00:24:01;;;;;;;7.6;11.6;;;;;;;3.5;47.1;97290;;;;
2021/12/05 00:34:16;;;;;;;7.6;11.6;;;;;;;3.5;47.2;97290;;;;
2021/12/05 00:45:29;;;;;;;5.9;9;;;;;;;3.5;47.1;97300;;;;
2021/12/05 00:55:23;;;;;;;5.9;9;;;;;;;3.6;46.6;97310;;;;
2021/12/05 01:05:18;;;;;;;5.5;8.5;;;;;;;3.6;45.7;97300;;;;
2021/12/05 01:15:59;;;;;;;5.5;8.5;;;;;;;3.6;46.4;97310;;;;
2021/12/05 01:27:06;;;;;;;5.5;8.5;;;;;;;3.7;46.7;97310;;;;
2021/12/05 01:37:09;;;;;;;4.4;8.3;;;;;;;3.7;47.4;97300;;;;
2021/12/05 01:58:16;;;;;;;4.4;8.3;;;;;;;3.6;49;97320;;;;
2021/12/05 02:08:25;;;;;;;4.8;7.3;;;;;;;3.7;48.5;97310;;;;
2021/12/05 02:39:16;;;;;;;14.1;19;;;;;;;3.3;53.6;97310;;;;
2021/12/05 02:49:03;;;;;;;14.1;19;;;;;;;3.2;55;97320;;;;
2021/12/05 02:59:05;;;;;;;14.1;19;;;;;;;3;57.4;97350;;;;
2021/12/05 03:09:59;;;;;;;24.3;31.2;;;;;;;2.7;62.6;97330;;;;
2021/12/05 03:19:59;;;;;;;24.3;31.2;;;;;;;2.2;67.4;97340;;;;
2021/12/05 03:29:59;;;;;;;24.3;31.2;;;;;;;2;70.8;97330;;;;
2021/12/05 03:39:59;;;;;;;23.6;30.6;;;;;;;2;71.8;97320;;;;
2021/12/05 03:49:59;;;;;;;23.6;30.6;;;;;;;1.9;72.9;97320;;;;
2021/12/05 04:00:59;;;;;;;23.6;30.6;;;;;;;1.8;75.4;97320;;;;
2021/12/05 04:12:00;;;;;;;14.2;18.9;;;;;;;2;73.4;97330;;;;
2021/12/05 04:21:59;;;;;;;14.2;18.9;;;;;;;2.1;74.3;97330;;;;
2021/12/05 04:31:59;;;;;;;14.2;18.9;;;;;;;2;75.5;97340;;;;
2021/12/05 04:42:59;;;;;;;8.1;12.3;;;;;;;2.1;74.8;97350;;;;
2021/12/05 04:52:59;;;;;;;8.1;12.3;;;;;;;2;75.1;97350;;;;
2021/12/05 05:03:59;;;;;;;8.1;12.3;;;;;;;1.9;75.6;97350;;;;
2021/12/05 05:13:59;;;;;;;7.1;10.3;;;;;;;1.9;76.2;97360;;;;
2021/12/05 05:24:21;;;;;;;7.1;10.3;;;;;;;2;75.7;97360;;;;
2021/12/05 05:46:08;;;;;;;8.4;12.9;;;;;;;1.7;76.9;97380;;;;
2021/12/05 05:55:59;;;;;;;8.4;12.9;;;;;;;1.6;78.2;97380;;;;
2021/12/05 06:05:59;;;;;;;8.4;12.4;;;;;;;1.5;78.9;97390;;;;
2021/12/05 06:15:59;;;;;;;8.4;12.4;;;;;;;1.5;78.7;97390;;;;
2021/12/05 06:25:59;;;;;;;8.4;12.4;;;;;;;1.6;78.5;97390;;;;
2021/12/05 06:46:59;;;;;;;8.3;11.9;;;;;;;1.6;78.2;97410;;;;
2021/12/05 06:56:59;;;;;;;8.3;11.9;;;;;;;1.8;77.7;97420;;;;
2021/12/05 07:06:59;;;;;;;9.3;14.3;;;;;;;1.9;77.5;97420;;;;
2021/12/05 07:48:59;;;;;;;11;14.4;;;;;;;2.5;76.1;97450;;;;
2021/12/05 07:59:11;;;;;;;11;14.4;;;;;;;2.7;75.7;97440;;;;
2021/12/05 08:19:59;;;;;;;17.8;21.3;;;;;;;2.9;75.2;97450;;;;
2021/12/05 08:31:09;;;;;;;17.8;21.3;;;;;;;3.1;74.9;97450;;;;
2021/12/05 08:42:28;;;;;;;34.1;40.4;;;;;;;3.1;74.8;97480;;;;
2021/12/05 09:22:31;;;;;;;18.7;23;;;;;;;4.1;72.6;97470;;;;
2021/12/05 10:15:12;;;;;;;27.7;32.3;;;;;;;4.3;72.6;97510;;;;
2021/12/05 10:26:31;;;;;;;27.7;32.3;;;;;;;4.2;73.3;97520;;;;
2021/12/05 10:36:05;;;;;;;21.4;24.7;;;;;;;4.1;74.4;97520;;;;
2021/12/05 10:46:03;;;;;;;21.4;24.7;;;;;;;4.2;74.2;97510;;;;
2021/12/05 10:56:59;;;;;;;21.4;24.7;;;;;;;4.3;74.1;97520;;;;
2021/12/05 11:06:59;;;;;;;28.6;34.2;;;;;;;4.1;75.2;97530;;;;
2021/12/05 11:16:59;;;;;;;28.6;34.2;;;;;;;4.1;74.9;97530;;;;
2021/12/05 11:27:59;;;;;;;28.6;34.2;;;;;;;4.2;74.4;97520;;;;
2021/12/05 11:38:59;;;;;;;32;38.3;;;;;;;4.1;74.5;97530;;;;
2021/12/05 11:48:59;;;;;;;32;38.3;;;;;;;4.2;74.1;97540;;;;
2021/12/05 12:00:00;;;;;;;32;38.3;;;;;;;4.2;74.5;97550;;;;
2021/12/05 12:09:59;;;;;;;34.9;40.8;;;;;;;4;75;97580;;;;
2021/12/05 12:21:00;;;;;;;34.9;40.8;;;;;;;3.9;75.4;97580;;;;
2021/12/05 12:31:59;;;;;;;34.9;40.8;;;;;;;3.8;75.3;97580;;;;
2021/12/05 12:42:59;;;;;;;38;44.3;;;;;;;3.9;76.1;97570;;;;
2021/12/05 12:54:01;;;;;;;38;44.3;;;;;;;3.9;75.1;97560;;;;
2021/12/05 13:14:59;;;;;;;37.8;43.6;;;;;;;4.2;74.1;97560;;;;
2021/12/05 13:24:59;;;;;;;37.8;43.6;;;;;;;4.1;74.9;97560;;;;
2021/12/05 13:34:59;;;;;;;38.4;43.6;;;;;;;4.1;74.9;97550;;;;
2021/12/05 13:46:00;;;;;;;38.4;43.6;;;;;;;4.1;74.4;97570;;;;
2021/12/05 13:56:59;;;;;;;38.4;43.6;;;;;;;4.1;74.5;97560;;;;
2021/12/05 14:07:01;;;;;;;39.8;47.6;;;;;;;4.1;75.2;97580;;;;
2021/12/05 14:17:59;;;;;;;39.8;47.6;;;;;;;4.2;74.9;97590;;;;
2021/12/05 14:27:59;;;;;;;39.8;47.6;;;;;;;4.2;74.9;97600;;;;
2021/12/05 14:38:59;;;;;;;43.5;50.1;;;;;;;4.1;75.3;97600;;;;
2021/12/05 14:48:59;;;;;;;43.5;50.1;;;;;;;4.1;75.3;97610;;;;
2021/12/05 14:59:59;;;;;;;43.5;50.1;;;;;;;4;75.4;97630;;;;
2021/12/05 15:10:59;;;;;;;47;54.6;;;;;;;3.8;76.7;97650;;;;
2021/12/05 15:20:59;;;;;;;47;54.6;;;;;;;3.8;75.8;97670;;;;
2021/12/05 15:30:59;;;;;;;47;54.6;;;;;;;3.9;75.2;97670;;;;
2021/12/05 15:40:59;;;;;;;45.8;53.4;;;;;;;3.9;75.2;97670;;;;
2021/12/05 15:50:59;;;;;;;45.8;53.4;;;;;;;3.9;75.2;97680;;;;
2021/12/05 16:02:00;;;;;;;45.8;53.4;;;;;;;3.8;76.5;97670;;;;
2021/12/05 16:12:59;;;;;;;48.1;57.5;;;;;;;3.8;76.6;97670;;;;
2021/12/05 16:23:59;;;;;;;48.1;57.5;;;;;;;3.8;76.5;97660;;;;
2021/12/05 16:34:59;;;;;;;52.3;62.4;;;;;;;3.8;76.4;97670;;;;
2021/12/05 16:44:59;;;;;;;52.3;62.4;;;;;;;3.7;76.1;97670;;;;
2021/12/05 16:56:00;;;;;;;52.3;62.4;;;;;;;3.5;76;97680;;;;
2021/12/05 17:07:01;;;;;;;56.2;64.2;;;;;;;3.5;75.5;97680;;;;
2021/12/05 17:16:59;;;;;;;56.2;64.2;;;;;;;3.2;76.9;97680;;;;
2021/12/05 17:26:59;;;;;;;56.2;64.2;;;;;;;3.1;76.9;97680;;;;
2021/12/05 17:36:59;;;;;;;60.7;68.9;;;;;;;3.2;76.6;97670;;;;
2021/12/05 17:46:59;;;;;;;60.7;68.9;;;;;;;3;77.5;97680;;;;
2021/12/05 17:57:06;;;;;;;60.7;68.9;;;;;;;3;77.7;97690;;;;
2021/12/05 18:06:59;;;;;;;57.9;66.5;;;;;;;3;77.5;97690;;;;
2021/12/05 18:17:59;;;;;;;57.9;66.5;;;;;;;3;77.9;97700;;;;
2021/12/05 18:27:59;;;;;;;57.9;66.5;;;;;;;3;78.5;97720;;;;
2021/12/05 18:37:59;;;;;;;55.7;67.9;;;;;;;3.1;78;97740;;;;
2021/12/05 18:48:00;;;;;;;55.7;67.9;;;;;;;3.2;77.7;97760;;;;
2021/12/05 18:58:59;;;;;;;55.7;67.9;;;;;;;3.3;77.6;97770;;;;
2021/12/05 19:09:16;;;;;;;57.3;65.9;;;;;;;3.3;77.6;97790;;;;
2021/12/05 19:19:01;;;;;;;57.3;65.9;;;;;;;3.3;77.9;97790;;;;
2021/12/05 19:28:59;;;;;;;57.3;65.9;;;;;;;3.2;78.4;97780;;;;
2021/12/05 19:40:00;;;;;;;82.2;92.6;;;;;;;3.3;78.2;97800;;;;
2021/12/05 19:49:59;;;;;;;82.2;92.6;;;;;;;3.4;78;97810;;;;
2021/12/05 19:59:59;;;;;;;82.2;92.6;;;;;;;3.4;78.3;97810;;;;
2021/12/05 20:10:59;;;;;;;94.4;106.3;;;;;;;3.5;78.1;97800;;;;
2021/12/05 20:22:01;;;;;;;94.4;106.3;;;;;;;3.5;78.2;97790;;;;
2021/12/05 20:31:59;;;;;;;95.3;111;;;;;;;3.5;78.1;97790;;;;
2021/12/05 20:41:59;;;;;;;95.3;111;;;;;;;3.4;78.2;97780;;;;
2021/12/05 20:52:59;;;;;;;95.3;111;;;;;;;3.2;79.2;97790;;;;
2021/12/05 21:02:59;;;;;;;90;107.3;;;;;;;3.3;78.8;97790;;;;
2021/12/05 21:12:59;;;;;;;90;107.3;;;;;;;3.3;78.1;97770;;;;
2021/12/05 21:23:59;;;;;;;90;107.3;;;;;;;3.2;78.7;97750;;;;
2021/12/05 21:33:59;;;;;;;91.5;103.9;;;;;;;3.1;78.5;97740;;;;
2021/12/05 21:44:59;;;;;;;91.5;103.9;;;;;;;3;78.7;97770;;;;
2021/12/05 21:54:59;;;;;;;91.5;103.9;;;;;;;3;79.3;97770;;;;
2021/12/05 22:04:59;;;;;;;95;110.4;;;;;;;2.9;80.7;97790;;;;
2021/12/05 22:15:59;;;;;;;95;110.4;;;;;;;3.1;80.4;97800;;;;
2021/12/05 22:26:59;;;;;;;95;110.4;;;;;;;3.1;80.6;97800;;;;
2021/12/05 22:37:59;;;;;;;66.1;74;;;;;;;3;81.2;97800;;;;
2021/12/05 22:47:59;;;;;;;66.1;74;;;;;;;3;81.1;97800;;;;
2021/12/05 22:58:59;;;;;;;66.1;74;;;;;;;3.2;80.6;97800;;;;
2021/12/05 23:09:59;;;;;;;58.3;64.9;;;;;;;3.3;80;97790;;;;
2021/12/05 23:20:59;;;;;;;58.3;64.9;;;;;;;3.2;79.7;97800;;;;
2021/12/05 23:31:59;;;;;;;62.7;71.8;;;;;;;3;79.9;97820;;;;
2021/12/05 23:41:59;;;;;;;62.7;71.8;;;;;;;3.1;79;97820;;;;
2021/12/05 23:51:59;;;;;;;62.7;71.8;;;;;;;3;78.8;97820;;;;
